Time;durP1;ratioP1;P1;durP2;ratioP2;P2;SDS_P1;SDS_P2;PMS_P1;PMS_P2;Temp;Humidity;BMP_temperature;BMP_pressure;BME280_temperature;BME280_humidity;BME280_pressure;Samples;Min_cycle;Max_cycle;Signal;HPM_P1;HPM_P2
2021/07/16 00:00:07;;;;;;;6.93;6.13;;;;;;;19.04;100.00;99405.28;5111803;28;20194;-73
2021/07/16 00:02:33;;;;;;;6.73;5.93;;;;;;;19.03;100.00;99400.84;5111798;28;20291;-73
2021/07/16 00:05:02;;;;;;;7.60;5.67;;;;;;;19.20;100.00;99393.75;5112241;28;20432;-73
2021/07/16 00:07:30;;;;;;;5.45;5.03;;;;;;;19.16;100.00;99390.47;5111819;28;20432;-73
2021/07/16 00:09:57;;;;;;;6.57;5.88;;;;;;;19.25;100.00;99391.44;5112173;28;20179;-73
2021/07/16 00:12:23;;;;;;;6.50;6.00;;;;;;;19.24;100.00;99398.75;5112005;28;20697;-73
2021/07/16 00:14:50;;;;;;;5.55;5.00;;;;;;;19.26;100.00;99401.34;5112199;28;20508;-73
2021/07/16 00:17:16;;;;;;;5.78;5.25;;;;;;;19.14;100.00;99400.69;5112107;28;20187;-73
2021/07/16 00:19:43;;;;;;;6.00;5.50;;;;;;;19.12;100.00;99403.53;5112231;28;20283;-72
2021/07/16 00:22:10;;;;;;;6.93;6.22;;;;;;;19.15;100.00;99399.66;5111471;28;20205;-72
2021/07/16 00:24:37;;;;;;;6.57;5.65;;;;;;;18.96;100.00;99398.72;5111708;28;20205;-73
2021/07/16 00:27:05;;;;;;;6.65;6.05;;;;;;;19.09;100.00;99400.28;5114641;28;20201;-72
2021/07/16 00:29:32;;;;;;;8.73;6.68;;;;;;;19.00;100.00;99401.16;5115687;28;20245;-72
2021/07/16 00:31:59;;;;;;;7.55;6.03;;;;;;;19.24;100.00;99400.63;5115822;28;20696;-72
2021/07/16 00:34:25;;;;;;;10.05;7.15;;;;;;;19.22;100.00;99391.72;5115990;28;20205;-72
2021/07/16 00:36:52;;;;;;;7.80;7.00;;;;;;;19.09;100.00;99390.22;5115907;28;20282;-73
2021/07/16 00:39:19;;;;;;;8.35;7.65;;;;;;;19.27;100.00;99398.47;5115722;28;20634;-73
2021/07/16 00:41:47;;;;;;;7.82;7.13;;;;;;;19.12;100.00;99395.34;5115344;28;20251;-72
2021/07/16 00:44:13;;;;;;;8.10;7.30;;;;;;;19.10;100.00;99401.97;5115460;28;20218;-72
2021/07/16 00:46:40;;;;;;;8.98;7.53;;;;;;;18.79;100.00;99399.50;5115528;28;20204;-72
2021/07/16 00:49:06;;;;;;;8.50;7.70;;;;;;;18.71;100.00;99402.03;5115473;28;20296;-72
2021/07/16 00:51:33;;;;;;;8.00;7.20;;;;;;;18.72;100.00;99395.56;5114914;28;20180;-72
2021/07/16 00:54:00;;;;;;;15.48;7.70;;;;;;;18.62;100.00;99403.78;5115479;28;20702;-71
2021/07/16 00:56:27;;;;;;;19.45;7.85;;;;;;;18.69;100.00;99406.78;5115348;28;20190;-71
2021/07/16 00:58:55;;;;;;;9.93;7.60;;;;;;;18.98;100.00;99398.56;5115043;28;20277;-73
2021/07/16 01:01:24;;;;;;;8.40;7.60;;;;;;;18.62;100.00;99397.47;5115394;28;20562;-72
2021/07/16 01:03:51;;;;;;;8.40;7.60;;;;;;;18.65;100.00;99408.06;5114996;28;20230;-72
2021/07/16 01:06:18;;;;;;;8.40;7.60;;;;;;;18.63;100.00;99399.16;5114671;28;20196;-72
2021/07/16 01:08:45;;;;;;;8.95;8.15;;;;;;;18.64;100.00;99400.91;5114903;28;20250;-73
2021/07/16 01:11:11;;;;;;;8.43;7.57;;;;;;;18.72;100.00;99404.63;5115198;28;20459;-73
2021/07/16 01:13:38;;;;;;;8.43;7.72;;;;;;;18.73;100.00;99400.88;5115149;28;20186;-73
2021/07/16 01:16:09;;;;;;;8.55;7.65;;;;;;;18.40;100.00;99406.81;5115061;28;20398;-73
2021/07/16 01:18:36;;;;;;;8.27;7.57;;;;;;;18.21;100.00;99402.22;5115285;28;20503;-73
2021/07/16 01:21:04;;;;;;;9.85;8.95;;;;;;;18.23;100.00;99401.06;5114506;28;20186;-73
2021/07/16 01:23:32;;;;;;;10.40;8.30;;;;;;;18.04;100.00;99404.63;5114521;28;20295;-72
2021/07/16 01:25:59;;;;;;;14.38;8.90;;;;;;;18.09;100.00;99406.91;5115036;28;20185;-72
2021/07/16 01:28:26;;;;;;;11.00;9.95;;;;;;;18.05;100.00;99406.34;5114652;28;20683;-72
2021/07/16 01:30:53;;;;;;;9.48;8.57;;;;;;;18.12;100.00;99412.97;5114096;28;20202;-72
2021/07/16 01:33:21;;;;;;;11.02;9.63;;;;;;;18.11;100.00;99410.38;5114254;28;20181;-72
2021/07/16 01:35:48;;;;;;;10.30;8.23;;;;;;;18.13;100.00;99417.41;5114181;28;20200;-72
2021/07/16 01:38:15;;;;;;;10.98;9.15;;;;;;;18.31;100.00;99413.97;5113752;28;20218;-72
2021/07/16 01:40:43;;;;;;;10.00;8.00;;;;;;;18.28;100.00;99423.28;5113736;28;20193;-71
2021/07/16 01:43:11;;;;;;;9.45;8.60;;;;;;;18.31;100.00;99417.53;5114255;28;20205;-72
2021/07/16 01:45:41;;;;;;;10.55;9.40;;;;;;;18.20;100.00;99422.28;5114464;28;20528;-72
2021/07/16 01:48:09;;;;;;;11.15;9.63;;;;;;;18.22;100.00;99418.41;5114181;28;20263;-73
2021/07/16 01:50:37;;;;;;;10.77;8.68;;;;;;;18.38;100.00;99417.84;5113970;28;20251;-73
2021/07/16 01:53:04;;;;;;;9.82;8.85;;;;;;;18.24;100.00;99421.00;5114565;28;20725;-72
2021/07/16 01:55:33;;;;;;;9.88;8.88;;;;;;;18.02;100.00;99423.00;5113986;28;20554;-72
2021/07/16 01:58:04;;;;;;;10.20;8.70;;;;;;;17.96;100.00;99423.56;5114223;28;20694;-72
2021/07/16 02:00:33;;;;;;;10.50;9.50;;;;;;;18.03;100.00;99419.25;5114171;28;20662;-72
2021/07/16 02:03:01;;;;;;;9.60;8.70;;;;;;;17.87;100.00;99419.81;5113629;28;20221;-73
2021/07/16 02:05:29;;;;;;;11.85;8.68;;;;;;;18.10;100.00;99425.84;5114182;28;20185;-71
2021/07/16 02:07:59;;;;;;;9.68;8.38;;;;;;;18.25;100.00;99430.91;5114074;28;20181;-72
2021/07/16 02:10:26;;;;;;;9.82;8.82;;;;;;;18.22;100.00;99433.91;5113623;28;20220;-72
2021/07/16 02:12:53;;;;;;;9.98;8.80;;;;;;;18.18;100.00;99440.63;5113392;28;20193;-72
2021/07/16 02:15:23;;;;;;;10.35;8.90;;;;;;;18.21;100.00;99441.22;5113837;28;20217;-71
2021/07/16 02:17:51;;;;;;;9.23;8.27;;;;;;;18.35;100.00;99450.84;5114101;28;20601;-73
2021/07/16 02:20:22;;;;;;;9.73;8.50;;;;;;;18.32;100.00;99440.25;5113830;28;20272;-73
2021/07/16 02:22:49;;;;;;;8.95;8.05;;;;;;;18.28;100.00;99445.09;5113652;28;20658;-73
2021/07/16 02:25:16;;;;;;;9.23;8.32;;;;;;;18.29;100.00;99440.50;5113688;28;20189;-72
2021/07/16 02:27:45;;;;;;;9.32;8.50;;;;;;;18.27;100.00;99445.22;5113247;28;20190;-73
2021/07/16 02:30:12;;;;;;;9.25;8.10;;;;;;;18.30;100.00;99442.25;5113041;28;20227;-72
2021/07/16 02:32:40;;;;;;;9.48;8.40;;;;;;;18.60;100.00;99443.09;5113012;28;20281;-72
2021/07/16 02:35:08;;;;;;;8.55;7.75;;;;;;;18.46;100.00;99441.66;5113659;28;20191;-72
2021/07/16 02:37:36;;;;;;;12.23;7.90;;;;;;;18.21;100.00;99440.38;5112935;28;20208;-72
2021/07/16 02:40:07;;;;;;;9.48;8.52;;;;;;;18.29;100.00;99438.66;5113443;28;20528;-73
2021/07/16 02:42:34;;;;;;;8.90;8.00;;;;;;;18.26;100.00;99447.09;5113290;28;20276;-71
2021/07/16 02:45:01;;;;;;;11.77;8.40;;;;;;;18.17;100.00;99449.81;5113193;28;20228;-72
2021/07/16 02:47:28;;;;;;;9.35;8.30;;;;;;;18.20;100.00;99444.09;5113218;28;20301;-72
2021/07/16 02:49:56;;;;;;;11.30;8.10;;;;;;;18.14;100.00;99431.91;5113182;28;20209;-71
2021/07/16 02:52:23;;;;;;;10.23;9.05;;;;;;;18.13;100.00;99436.50;5113057;28;20205;-72
2021/07/16 02:54:49;;;;;;;9.82;8.63;;;;;;;18.12;100.00;99437.47;5112260;28;20211;-72
2021/07/16 02:57:16;;;;;;;8.85;8.05;;;;;;;18.21;100.00;99443.09;5112761;28;20189;-73
2021/07/16 02:59:42;;;;;;;9.88;8.50;;;;;;;18.01;100.00;99444.94;5112989;28;20207;-72
2021/07/16 03:02:09;;;;;;;9.20;8.40;;;;;;;18.15;100.00;99446.38;5112981;28;20551;-72
2021/07/16 03:04:36;;;;;;;9.18;8.32;;;;;;;18.20;100.00;99452.25;5112509;28;20234;-72
2021/07/16 03:07:04;;;;;;;8.32;7.53;;;;;;;18.24;100.00;99457.28;5112531;28;20213;-72
2021/07/16 03:09:34;;;;;;;9.40;8.38;;;;;;;18.31;100.00;99452.97;5112741;28;20226;-72
2021/07/16 03:12:02;;;;;;;9.43;8.52;;;;;;;18.28;100.00;99452.41;5112718;28;20203;-72
2021/07/16 03:14:28;;;;;;;10.40;8.60;;;;;;;18.22;100.00;99456.56;5112425;28;20190;-72
2021/07/16 03:16:55;;;;;;;10.20;8.15;;;;;;;18.20;100.00;99457.72;5112799;28;20559;-72
2021/07/16 03:19:24;;;;;;;10.43;7.50;;;;;;;18.21;100.00;99454.00;5112829;28;20635;-74
2021/07/16 03:21:51;;;;;;;9.45;8.45;;;;;;;18.24;100.00;99456.44;5112801;28;20610;-73
2021/07/16 03:24:20;;;;;;;9.73;8.73;;;;;;;18.15;100.00;99446.38;5112346;28;20198;-73
2021/07/16 03:26:47;;;;;;;13.15;9.77;;;;;;;18.11;100.00;99446.66;5112153;28;20190;-73
2021/07/16 03:29:13;;;;;;;12.02;9.82;;;;;;;18.22;100.00;99452.97;5112262;28;20224;-72
2021/07/16 03:31:40;;;;;;;9.73;8.70;;;;;;;18.33;100.00;99452.84;5112275;28;20202;-72
2021/07/16 03:34:07;;;;;;;10.68;8.77;;;;;;;18.39;100.00;99443.25;5112409;28;20181;-72
2021/07/16 03:36:33;;;;;;;9.98;8.98;;;;;;;18.27;100.00;99448.84;5112406;28;20562;-73
2021/07/16 03:39:00;;;;;;;11.13;9.45;;;;;;;18.05;100.00;99438.19;5112112;28;20188;-72
2021/07/16 03:41:28;;;;;;;11.60;9.35;;;;;;;18.21;100.00;99437.66;5111374;28;20222;-72
2021/07/16 03:43:55;;;;;;;10.18;9.07;;;;;;;18.27;100.00;99446.13;5112383;28;20275;-72
2021/07/16 03:46:21;;;;;;;13.55;10.20;;;;;;;18.15;100.00;99455.41;5112045;28;20658;-72
2021/07/16 03:48:48;;;;;;;13.32;10.27;;;;;;;18.11;100.00;99448.50;5111904;28;20195;-72
2021/07/16 03:51:14;;;;;;;11.95;10.15;;;;;;;18.01;100.00;99448.50;5111827;28;20208;-72
2021/07/16 03:53:41;;;;;;;13.80;9.82;;;;;;;17.98;100.00;99462.41;5112242;28;20510;-73
2021/07/16 03:56:07;;;;;;;12.00;9.18;;;;;;;18.03;100.00;99470.16;5112394;28;20280;-72
2021/07/16 03:58:35;;;;;;;10.38;9.38;;;;;;;18.05;100.00;99468.16;5111645;28;20212;-72
2021/07/16 04:01:02;;;;;;;9.50;8.55;;;;;;;17.89;100.00;99474.16;5113349;28;20608;-73
2021/07/16 04:03:28;;;;;;;10.00;9.10;;;;;;;18.02;100.00;99472.03;5116060;28;20244;-73
2021/07/16 04:05:56;;;;;;;11.60;10.50;;;;;;;18.00;100.00;99474.03;5116595;28;20612;-72
2021/07/16 04:08:23;;;;;;;11.00;9.77;;;;;;;18.05;100.00;99468.16;5116390;28;20192;-72
2021/07/16 04:10:50;;;;;;;12.07;10.80;;;;;;;18.04;100.00;99467.28;5116088;28;20242;-72
2021/07/16 04:13:17;;;;;;;14.10;11.48;;;;;;;18.06;100.00;99476.19;5115904;28;20205;-72
2021/07/16 04:15:45;;;;;;;12.02;10.82;;;;;;;18.09;100.00;99477.75;5116284;28;20196;-72
2021/07/16 04:18:12;;;;;;;13.38;10.10;;;;;;;18.22;100.00;99478.34;5116244;28;20289;-72
2021/07/16 04:20:40;;;;;;;11.88;9.95;;;;;;;18.16;100.00;99478.06;5115681;28;20278;-73
2021/07/16 04:23:07;;;;;;;11.52;9.70;;;;;;;18.24;100.00;99478.22;5115735;28;20201;-72
2021/07/16 04:25:34;;;;;;;10.80;9.68;;;;;;;18.26;100.00;99484.41;5116184;28;20280;-72
2021/07/16 04:28:03;;;;;;;11.60;9.85;;;;;;;18.30;100.00;99485.84;5116072;28;20196;-73
2021/07/16 04:30:30;;;;;;;10.30;9.05;;;;;;;18.39;100.00;99484.13;5116060;28;20565;-73
2021/07/16 04:33:01;;;;;;;10.68;9.57;;;;;;;18.38;100.00;99487.84;5115643;28;20190;-72
2021/07/16 04:35:28;;;;;;;13.82;9.45;;;;;;;18.37;100.00;99499.78;5115851;28;20539;-73
2021/07/16 04:37:55;;;;;;;10.70;9.35;;;;;;;18.48;100.00;99500.50;5115440;28;20220;-71
2021/07/16 04:40:23;;;;;;;10.27;8.90;;;;;;;18.65;100.00;99503.50;5115330;28;20219;-72
2021/07/16 04:42:51;;;;;;;10.75;8.07;;;;;;;18.55;100.00;99512.56;5115611;28;20202;-71
2021/07/16 04:45:18;;;;;;;11.00;9.52;;;;;;;18.49;100.00;99515.84;5115440;28;20192;-72
2021/07/16 04:47:45;;;;;;;11.25;10.05;;;;;;;18.36;100.00;99514.38;5115585;28;20632;-73
2021/07/16 04:50:14;;;;;;;15.10;12.02;;;;;;;18.43;100.00;99507.34;5115257;28;20225;-72
2021/07/16 04:52:41;;;;;;;17.77;12.57;;;;;;;18.55;100.00;99498.91;5114332;28;20244;-72
2021/07/16 04:55:09;;;;;;;14.05;11.52;;;;;;;18.65;100.00;99500.78;5114939;28;20596;-72
2021/07/16 04:57:36;;;;;;;16.02;12.40;;;;;;;18.84;100.00;99495.38;5114903;28;20617;-72
2021/07/16 05:00:04;;;;;;;14.75;12.75;;;;;;;18.73;100.00;99509.97;5114629;28;20285;-73
2021/07/16 05:02:30;;;;;;;13.98;12.50;;;;;;;19.02;100.00;99503.69;5114756;28;20202;-72
2021/07/16 05:04:57;;;;;;;13.85;11.40;;;;;;;19.08;100.00;99516.72;5114946;28;20217;-72
2021/07/16 05:07:25;;;;;;;16.25;12.13;;;;;;;19.23;100.00;99510.81;5114658;28;20206;-72
2021/07/16 05:09:51;;;;;;;12.32;11.05;;;;;;;19.32;100.00;99518.13;5114957;28;20204;-72
2021/07/16 05:12:18;;;;;;;14.20;10.80;;;;;;;19.17;100.00;99523.19;5113831;28;20219;-72
2021/07/16 05:14:44;;;;;;;16.23;12.40;;;;;;;19.25;100.00;99519.72;5114230;28;20832;-72
2021/07/16 05:17:11;;;;;;;15.05;12.85;;;;;;;19.11;100.00;99524.63;5114413;28;20193;-72
2021/07/16 05:19:38;;;;;;;17.75;13.10;;;;;;;19.15;100.00;99517.00;5114578;28;20195;-73
2021/07/16 05:22:04;;;;;;;16.17;13.00;;;;;;;19.36;100.00;99523.16;5114561;28;20848;-73
2021/07/16 05:24:33;;;;;;;16.98;11.95;;;;;;;19.33;100.00;99517.09;5114071;28;20276;-73
2021/07/16 05:27:00;;;;;;;20.48;13.90;;;;;;;18.97;100.00;99503.22;5113520;28;20640;-74
2021/07/16 05:29:26;;;;;;;21.05;14.15;;;;;;;19.20;100.00;99509.25;5114523;28;20187;-73
2021/07/16 05:31:53;;;;;;;17.40;13.63;;;;;;;19.20;100.00;99530.22;5113841;28;20281;-74
2021/07/16 05:34:20;;;;;;;17.60;14.13;;;;;;;19.40;100.00;99525.56;5113768;28;20282;-73
2021/07/16 05:36:46;;;;;;;25.50;14.65;;;;;;;19.65;100.00;99518.59;5114224;28;20214;-72
2021/07/16 05:39:13;;;;;;;17.15;14.35;;;;;;;19.44;100.00;99529.72;5113005;28;20191;-73
2021/07/16 05:41:41;;;;;;;16.23;13.70;;;;;;;19.68;100.00;99532.81;5108555;28;20197;-73
2021/07/16 05:44:08;;;;;;;18.85;14.80;;;;;;;19.79;99.17;99543.59;5113177;28;20273;-73
2021/07/16 05:46:34;;;;;;;18.80;13.83;;;;;;;20.06;96.67;99535.56;5113653;28;20556;-74
2021/07/16 05:49:02;;;;;;;17.13;13.53;;;;;;;20.01;96.10;99536.00;5113325;28;20457;-72
2021/07/16 05:51:29;;;;;;;18.23;14.80;;;;;;;20.00;95.96;99532.44;5113210;28;20469;-74
2021/07/16 05:53:55;;;;;;;19.63;13.50;;;;;;;20.05;95.99;99536.59;5113189;28;20464;-73
2021/07/16 05:56:22;;;;;;;17.50;14.63;;;;;;;20.12;94.48;99541.28;5113762;28;20424;-73
2021/07/16 05:58:50;;;;;;;18.80;14.90;;;;;;;20.36;93.31;99542.59;5113063;28;20437;-73
2021/07/16 06:01:16;;;;;;;20.37;15.07;;;;;;;20.49;92.29;99534.91;5113936;28;20445;-73
2021/07/16 06:03:43;;;;;;;16.70;14.80;;;;;;;20.57;90.92;99534.13;5113330;28;20725;-72
2021/07/16 06:06:10;;;;;;;17.67;14.57;;;;;;;20.45;92.08;99552.63;5113217;28;20436;-73
2021/07/16 06:08:36;;;;;;;19.07;15.37;;;;;;;20.33;93.04;99551.97;5113460;28;20792;-71
2021/07/16 06:11:03;;;;;;;19.80;14.63;;;;;;;20.25;93.49;99553.75;5113027;28;20473;-72
2021/07/16 06:13:29;;;;;;;16.73;14.40;;;;;;;20.46;92.80;99558.94;5112745;28;20543;-73
2021/07/16 06:15:57;;;;;;;19.40;15.10;;;;;;;20.46;92.37;99562.53;5112980;28;20437;-73
2021/07/16 06:18:24;;;;;;;21.00;14.33;;;;;;;20.54;91.72;99569.97;5113263;28;20508;-71
2021/07/16 06:20:51;;;;;;;18.40;14.57;;;;;;;20.52;92.33;99569.28;5112947;28;20480;-72
2021/07/16 06:23:17;;;;;;;20.17;13.67;;;;;;;20.64;91.34;99559.00;5113047;28;20448;-73
2021/07/16 06:25:44;;;;;;;17.70;14.30;;;;;;;20.58;92.26;99574.19;5112633;28;20432;-73
2021/07/16 06:28:11;;;;;;;17.90;14.40;;;;;;;20.51;91.78;99568.44;5112787;28;20428;-73
2021/07/16 06:30:38;;;;;;;16.63;14.33;;;;;;;20.30;93.72;99576.00;5112923;28;20919;-73
2021/07/16 06:33:06;;;;;;;19.30;15.27;;;;;;;20.32;93.29;99579.47;5112932;28;20472;-74
2021/07/16 06:35:33;;;;;;;18.33;15.13;;;;;;;20.28;93.78;99589.81;5112863;28;20431;-73
2021/07/16 06:38:00;;;;;;;17.60;15.80;;;;;;;20.25;94.11;99586.56;5112642;28;20437;-74
2021/07/16 06:40:26;;;;;;;18.83;15.37;;;;;;;20.26;94.95;99585.53;5111787;28;20425;-73
2021/07/16 06:42:53;;;;;;;20.40;15.33;;;;;;;19.96;96.88;99601.19;5112204;28;20433;-74
2021/07/16 06:45:20;;;;;;;18.97;15.00;;;;;;;19.98;98.49;99594.56;5112542;28;20421;-73
2021/07/16 06:47:46;;;;;;;17.47;13.57;;;;;;;20.15;97.12;99598.41;5112150;28;20441;-73
2021/07/16 06:50:14;;;;;;;21.27;15.13;;;;;;;20.05;96.96;99600.28;5112798;28;20461;-73
2021/07/16 06:52:41;;;;;;;25.97;16.50;;;;;;;20.00;97.39;99597.16;5112142;28;20796;-74
2021/07/16 06:55:08;;;;;;;21.67;16.30;;;;;;;19.70;100.00;99607.31;5111502;28;20456;-72
2021/07/16 06:57:35;;;;;;;21.08;16.20;;;;;;;19.95;100.00;99610.41;5112369;28;20436;-73
2021/07/16 07:00:02;;;;;;;21.02;15.63;;;;;;;19.97;100.00;99609.25;5112351;28;20202;-74
2021/07/16 07:02:28;;;;;;;17.77;15.50;;;;;;;20.14;100.00;99614.94;5111920;28;20199;-73
2021/07/16 07:04:55;;;;;;;21.80;15.70;;;;;;;19.94;100.00;99612.31;5111898;28;20431;-73
2021/07/16 07:07:23;;;;;;;137.23;91.03;;;;;;;19.75;100.00;99620.53;5112198;28;20928;-73
2021/07/16 07:09:49;;;;;;;22.20;17.50;;;;;;;19.80;100.00;99623.69;5112703;28;20435;-74
2021/07/16 07:12:16;;;;;;;23.13;17.73;;;;;;;19.97;100.00;99624.81;5111940;28;20436;-73
2021/07/16 07:14:43;;;;;;;24.67;16.40;;;;;;;19.95;100.00;99622.22;5113798;28;20898;-72
2021/07/16 07:17:09;;;;;;;21.00;16.33;;;;;;;19.77;100.00;99638.50;5111979;28;20435;-72
2021/07/16 07:19:36;;;;;;;21.37;17.83;;;;;;;19.73;100.00;99642.53;5112450;28;20433;-73
2021/07/16 07:22:03;;;;;;;29.00;18.67;;;;;;;19.68;100.00;99646.69;5112642;28;20500;-71
2021/07/16 07:24:31;;;;;;;21.50;15.70;;;;;;;19.55;100.00;99633.34;5111700;28;20483;-72
2021/07/16 07:26:58;;;;;;;20.37;17.03;;;;;;;19.68;100.00;99644.81;5112043;28;20459;-72
2021/07/16 07:29:24;;;;;;;23.40;16.83;;;;;;;19.79;100.00;99638.38;5112130;28;20436;-73
2021/07/16 07:31:51;;;;;;;19.05;15.00;;;;;;;19.51;100.00;99642.81;5112248;28;20896;-73
2021/07/16 07:34:18;;;;;;;18.77;16.45;;;;;;;19.37;100.00;99635.94;5111407;28;20282;-71
2021/07/16 07:36:47;;;;;;;21.10;16.13;;;;;;;19.53;100.00;99638.06;5111494;28;20240;-72
2021/07/16 07:39:15;;;;;;;24.58;19.25;;;;;;;19.81;100.00;99636.34;5111786;28;20249;-73
2021/07/16 07:41:45;;;;;;;20.57;15.60;;;;;;;20.02;100.00;99632.56;5111892;28;20202;-73
2021/07/16 07:44:13;;;;;;;20.70;17.58;;;;;;;19.74;100.00;99632.47;5112293;28;20508;-72
2021/07/16 07:46:40;;;;;;;25.00;19.45;;;;;;;19.53;100.00;99636.19;5111326;28;20206;-72
2021/07/16 07:49:07;;;;;;;24.80;18.37;;;;;;;19.81;100.00;99635.47;5111697;28;20240;-73
2021/07/16 07:51:34;;;;;;;27.13;18.25;;;;;;;19.78;100.00;99640.22;5112155;28;20654;-72
2021/07/16 07:54:01;;;;;;;25.10;20.27;;;;;;;19.85;100.00;99647.81;5112051;28;20202;-73
2021/07/16 07:56:28;;;;;;;22.10;18.93;;;;;;;20.12;100.00;99639.69;5111815;28;20486;-74
2021/07/16 07:58:56;;;;;;;22.27;18.40;;;;;;;20.31;100.00;99641.50;5111296;28;20434;-73
2021/07/16 08:01:24;;;;;;;25.40;18.17;;;;;;;20.25;100.00;99652.16;5111628;28;20953;-74
2021/07/16 08:03:51;;;;;;;24.77;18.30;;;;;;;20.48;100.00;99655.38;5111595;28;20271;-74
2021/07/16 08:06:17;;;;;;;24.50;17.37;;;;;;;20.48;100.00;99663.56;5111184;28;20926;-74
2021/07/16 08:08:44;;;;;;;22.70;18.77;;;;;;;20.76;100.00;99662.59;5111076;28;20463;-74
2021/07/16 08:11:11;;;;;;;25.70;17.93;;;;;;;20.65;100.00;99667.44;5110776;28;20461;-72
2021/07/16 08:13:38;;;;;;;24.63;18.07;;;;;;;20.90;100.00;99666.69;5117842;28;20439;-72
2021/07/16 08:16:06;;;;;;;20.40;16.67;;;;;;;21.29;95.66;99660.94;5111389;28;20440;-72
2021/07/16 08:18:33;;;;;;;18.47;16.10;;;;;;;21.23;93.94;99677.97;5091233;28;20438;-73
2021/07/16 08:21:00;;;;;;;19.83;16.83;;;;;;;21.51;94.45;99665.09;5099716;28;20436;-73
2021/07/16 08:23:26;;;;;;;20.07;16.80;;;;;;;21.88;92.34;99664.00;5111516;28;20457;-72
2021/07/16 08:25:53;;;;;;;16.73;14.03;;;;;;;22.08;87.71;99656.44;5111571;28;20532;-72
2021/07/16 08:28:19;;;;;;;17.33;14.07;;;;;;;22.11;86.71;99667.06;5111637;28;20425;-74
2021/07/16 08:30:46;;;;;;;19.00;15.50;;;;;;;22.32;86.38;99664.00;5110725;28;20483;-73
2021/07/16 08:33:14;;;;;;;16.93;14.57;;;;;;;22.51;83.80;99662.03;5111909;28;20867;-74
2021/07/16 08:35:41;;;;;;;16.87;14.77;;;;;;;22.35;84.83;99671.03;5111481;28;20799;-74
2021/07/16 08:38:07;;;;;;;20.40;16.10;;;;;;;22.35;86.96;99673.78;5111373;28;20427;-74
2021/07/16 08:40:34;;;;;;;19.93;16.97;;;;;;;22.12;87.16;99678.94;5110740;28;20445;-74
2021/07/16 08:43:02;;;;;;;20.43;16.40;;;;;;;22.14;87.67;99674.13;5111361;28;20860;-73
2021/07/16 08:45:29;;;;;;;20.73;16.10;;;;;;;21.95;89.22;99678.78;5111576;28;20421;-74
2021/07/16 08:47:57;;;;;;;21.33;15.27;;;;;;;21.65;90.25;99670.00;5113492;28;20441;-72
2021/07/16 08:50:27;;;;;;;19.57;14.67;;;;;;;21.75;89.60;99677.28;5114651;28;20497;-73
2021/07/16 08:53:01;;;;;;;21.60;19.03;;;;;;;21.59;92.94;99675.25;5115106;28;20790;-74
2021/07/16 08:55:31;;;;;;;22.57;17.00;;;;;;;21.61;93.35;99678.72;5114928;28;20453;-73
2021/07/16 08:57:58;;;;;;;20.13;17.97;;;;;;;21.75;93.99;99677.28;5114847;28;20431;-74
2021/07/16 09:00:25;;;;;;;20.60;17.20;;;;;;;21.59;94.42;99676.13;5115023;28;20470;-73
2021/07/16 09:02:54;;;;;;;21.07;17.80;;;;;;;21.57;95.16;99674.56;5114582;28;21045;-74
2021/07/16 09:05:33;;;;;;;28.50;18.70;;;;;;;21.68;95.53;99670.72;5114573;28;20467;-73
2021/07/16 09:08:00;;;;;;;21.83;18.17;;;;;;;21.64;96.34;99675.66;5114391;28;20480;-73
2021/07/16 09:10:28;;;;;;;18.40;15.90;;;;;;;21.41;94.55;99675.28;5114283;28;20417;-74
2021/07/16 09:12:59;;;;;;;21.30;16.53;;;;;;;21.24;95.70;99686.03;5114754;28;20441;-73
2021/07/16 09:15:27;;;;;;;21.70;18.30;;;;;;;21.23;97.27;99686.19;5114768;28;20429;-73
2021/07/16 09:18:13;;;;;;;21.53;17.47;;;;;;;21.35;96.83;99675.88;5114212;28;20447;-71
2021/07/16 09:20:41;;;;;;;22.77;17.10;;;;;;;21.34;96.61;99693.31;5114753;28;20432;-73
2021/07/16 09:23:09;;;;;;;20.47;17.40;;;;;;;21.36;96.93;99683.06;5114431;28;21010;-73
2021/07/16 09:25:36;;;;;;;23.87;18.57;;;;;;;21.42;96.36;99682.50;5114178;28;20429;-74
2021/07/16 09:28:03;;;;;;;22.27;18.87;;;;;;;21.33;96.63;99697.94;5114286;28;20421;-73
2021/07/16 09:30:30;;;;;;;23.53;18.83;;;;;;;21.43;97.69;99693.25;5114187;28;20934;-73
2021/07/16 09:32:59;;;;;;;21.00;17.70;;;;;;;21.34;96.97;99696.06;5114448;28;20860;-73
2021/07/16 09:35:27;;;;;;;24.37;19.67;;;;;;;21.52;97.83;99691.47;5114124;28;20431;-72
2021/07/16 09:37:59;;;;;;;21.77;18.43;;;;;;;21.32;99.61;99704.41;5113848;28;20437;-73
2021/07/16 09:40:28;;;;;;;25.17;19.10;;;;;;;21.42;100.00;99688.81;5114196;28;20739;-73
2021/07/16 09:43:07;;;;;;;21.10;17.00;;;;;;;21.37;99.63;99696.63;5113823;28;20528;-73
2021/07/16 09:45:34;;;;;;;21.53;17.73;;;;;;;20.94;100.00;99700.97;5114107;28;20516;-73
2021/07/16 09:48:19;;;;;;;18.47;15.53;;;;;;;21.29;100.00;99692.94;5112816;28;20457;-71
2021/07/16 09:50:46;;;;;;;25.33;16.50;;;;;;;21.06;100.00;99692.53;5114047;28;20424;-72
2021/07/16 09:53:22;;;;;;;21.77;17.77;;;;;;;21.12;100.00;99697.38;5114200;28;20432;-73
2021/07/16 09:55:49;;;;;;;19.60;16.13;;;;;;;21.23;100.00;99703.50;5114021;28;20469;-72
2021/07/16 09:58:27;;;;;;;19.53;16.50;;;;;;;21.55;100.00;99703.97;5113722;28;20425;-73
2021/07/16 10:00:55;;;;;;;20.13;15.60;;;;;;;21.40;99.05;99707.28;5113103;28;20470;-74
2021/07/16 10:03:23;;;;;;;18.27;16.27;;;;;;;21.38;100.00;99706.53;5113818;28;20592;-73
2021/07/16 10:05:51;;;;;;;26.57;20.13;;;;;;;21.50;96.68;99700.88;5113507;28;20486;-72
2021/07/16 10:08:20;;;;;;;15.90;14.00;;;;;;;21.51;98.06;99697.13;5113302;28;20516;-74
2021/07/16 10:10:48;;;;;;;18.87;14.27;;;;;;;21.58;97.05;99698.22;5113281;28;20441;-73
2021/07/16 10:13:16;;;;;;;15.00;13.40;;;;;;;21.65;96.38;99700.16;5113493;28;20429;-71
2021/07/16 10:15:45;;;;;;;13.90;12.47;;;;;;;21.67;94.34;99702.75;5113520;28;20830;-73
2021/07/16 10:18:12;;;;;;;15.57;12.87;;;;;;;22.07;91.77;99710.44;5113745;28;20421;-74
2021/07/16 10:20:39;;;;;;;12.63;11.40;;;;;;;22.00;90.49;99705.72;5112813;28;20523;-74
2021/07/16 10:23:07;;;;;;;14.33;12.30;;;;;;;22.03;90.75;99710.91;5113394;28;20520;-72
2021/07/16 10:25:35;;;;;;;14.57;12.60;;;;;;;21.94;90.36;99709.13;5112692;28;20496;-73
2021/07/16 10:28:02;;;;;;;12.47;11.17;;;;;;;22.08;89.75;99714.03;5112503;28;20504;-75
2021/07/16 10:30:34;;;;;;;11.50;10.30;;;;;;;22.60;86.23;99715.91;5115830;27;20528;-73
2021/07/16 10:33:01;;;;;;;12.97;11.67;;;;;;;22.64;85.30;99718.16;5120189;27;20469;-72
2021/07/16 10:35:29;;;;;;;14.33;12.63;;;;;;;23.10;84.19;99720.59;5121764;27;20448;-73
2021/07/16 10:37:58;;;;;;;13.23;11.93;;;;;;;23.53;80.58;99715.88;5120050;27;20445;-74
2021/07/16 10:40:37;;;;;;;16.10;13.43;;;;;;;23.61;80.67;99726.03;5121652;27;20452;-72
2021/07/16 10:43:05;;;;;;;15.20;11.40;;;;;;;23.31;80.94;99721.00;5122015;27;20791;-71
2021/07/16 10:45:34;;;;;;;13.53;12.23;;;;;;;23.60;80.08;99710.56;5120970;27;20443;-72
2021/07/16 10:48:17;;;;;;;13.23;11.33;;;;;;;23.56;80.06;99715.53;5120670;27;20454;-73
2021/07/16 10:50:45;;;;;;;12.60;10.47;;;;;;;23.29;79.98;99723.06;5118322;27;20458;-73
2021/07/16 10:53:18;;;;;;;14.93;13.30;;;;;;;23.18;82.45;99722.50;5118559;27;20482;-73
2021/07/16 10:56:02;;;;;;;16.90;15.10;;;;;;;23.09;84.19;99722.50;5121970;27;20436;-74
2021/07/16 10:58:30;;;;;;;16.50;13.77;;;;;;;23.52;82.06;99728.78;5117077;27;20456;-72
2021/07/16 11:00:57;;;;;;;13.20;11.90;;;;;;;23.20;81.37;99728.69;5122327;27;20459;-72
2021/07/16 11:03:38;;;;;;;12.20;11.00;;;;;;;23.40;81.90;99723.75;5117622;27;20480;-72
2021/07/16 11:06:05;;;;;;;10.97;9.87;;;;;;;23.89;77.16;99719.19;5120821;27;20873;-72
2021/07/16 11:08:54;;;;;;;12.00;10.17;;;;;;;24.08;75.87;99720.75;5123422;27;20467;-73
2021/07/16 11:11:34;;;;;;;11.67;10.47;;;;;;;24.33;74.62;99721.56;5119549;27;20514;-73
2021/07/16 11:14:01;;;;;;;13.10;11.77;;;;;;;24.38;74.98;99722.91;5120016;27;20459;-74
2021/07/16 11:16:44;;;;;;;10.73;9.53;;;;;;;24.50;74.27;99722.41;5122066;27;20444;-73
2021/07/16 11:19:22;;;;;;;9.53;8.63;;;;;;;24.36;73.23;99731.38;5122904;27;20931;-71